Météo aéronautique

 

LFSI - St. Dizier/Robin, France
Distance from station: SO 26km
Mise à jour: 10/04/2020 05:30
clair
clair
 Wind from calm
Vent: calme
Température: 7°C
Point de rosée: 4°C
Humidité: 81%
Baromètre: 1022 hPa
Résumé: clair
Visibility: greater than 10 km
2020/04/10 03:30 LFSI 100330Z AUTO 00000KT CAVOK 07/04 Q1022
LFSO - Nancy/Ochey (faf, France
Distance from station: ESE 62km
Mise à jour: 10/04/2020 05:30
clair
clair
 Wind from calm
Vent: calme
Température: 9°C
Point de rosée: 4°C
Humidité: 71%
Baromètre: 1023 hPa
Résumé: clair
Visibility: greater than 10 km
2020/04/10 03:30 LFSO 100330Z AUTO 00000KT CAVOK 09/04 Q1023
LFOK - Chalons/Vatry Fa, France
Distance from station: O 73km
Mise à jour: 10/04/2020 05:30
clair
clair
 Wind from NNE
Vent: NNE 9 km/h
Température: 10°C
Wind Chill: 9°C
Point de rosée: 6°C
Humidité: 76%
Baromètre: 1023 hPa
Résumé: clair
Visibility: greater than 10 km
2020/04/10 03:30 LFOK 100330Z AUTO 02005KT CAVOK 10/06 Q1023 TEMPO 4000 BR
 
LFSN - Nancy/Essey, France
Distance from station: E 77km
Mise à jour: 10/04/2020 05:30
clair
clair
 Wind from S
Vent: S 2 km/h
Température: 5°C
Point de rosée: 3°C
Humidité: 87%
Baromètre: 1023 hPa
Résumé: clair
Visibility: greater than 10 km
2020/04/10 03:30 LFSN 100330Z AUTO 18001KT CAVOK 05/03 Q1023
LFSG - Epinal/Mirecourt, France
Distance from station: SE 81km
Mise à jour: 10/04/2020 05:30
clair
clair
 Wind from varies
Vent: varies 6 km/h
Température: 7°C
Point de rosée: 2°C
Humidité: 71%
Baromètre: 1023 hPa
Résumé: clair
Visibility: greater than 10 km
2020/04/10 03:30 LFSG 100330Z AUTO VRB03KT CAVOK 07/02 Q1023
LFJL - Metz-Nancy-Lorra, France
Distance from station: ENE 82km
Mise à jour: 10/04/2020 05:30
clair
clair
 Wind from N
Vent: N 4 km/h
Température: 8°C
Point de rosée: 4°C
Humidité: 76%
Baromètre: 1023 hPa
Résumé: clair
Visibility: greater than 10 km
2020/04/10 03:30 LFJL 100330Z AUTO 01002KT CAVOK 08/04 Q1023
 
LFQA - Reims/Prunay, France
Distance from station: ONO 89km
Mise à jour: 10/04/2020 05:30
clair
clair
 Wind from ONO
Vent: ONO 2 km/h
Température: 11°C
Point de rosée: 8°C
Humidité: 82%
Baromètre: 1023 hPa
Résumé: clair
Visibility: greater than 10 km
2020/04/10 03:30 LFQA 100330Z AUTO 29001KT CAVOK 11/08 Q1023
LFQB - Troyes/Barberey, France
Distance from station: OSO 99km
Mise à jour: 10/04/2020 05:30
clair
clair
 Wind from varies
Vent: varies 4 km/h
Température: 7°C
Point de rosée: 4°C
Humidité: 81%
Baromètre: 1022 hPa
Résumé: clair
Visibility: greater than 10 km
2020/04/10 03:30 LFQB 100330Z AUTO VRB02KT CAVOK 07/04 Q1022